createdAt,value
2019-01-15T00:00:27.771Z,18.65
2019-01-15T00:01:06.086Z,18.23
2019-01-15T00:01:43.882Z,15.95
2019-01-15T00:02:21.711Z,12.53
2019-01-15T00:02:59.341Z,13.32
2019-01-15T00:03:36.981Z,16.15
2019-01-15T00:04:14.379Z,13.38
2019-01-15T00:04:51.773Z,20.65
2019-01-15T00:05:29.716Z,18.32
2019-01-15T00:06:07.449Z,18.62
2019-01-15T00:06:44.787Z,10.95
2019-01-15T00:07:21.995Z,11.65
2019-01-15T00:07:59.911Z,21.30
2019-01-15T00:08:37.424Z,21.62
2019-01-15T00:09:15.436Z,16.65
2019-01-15T00:09:53.141Z,13.22
2019-01-15T00:10:31.013Z,12.63
2019-01-15T00:11:08.621Z,19.50
2019-01-15T00:11:46.067Z,17.55
2019-01-15T00:12:23.379Z,12.63
2019-01-15T00:13:00.879Z,14.63
2019-01-15T00:13:38.712Z,14.10
2019-01-15T00:14:20.112Z,22.35
2019-01-15T00:14:58.119Z,15.00
2019-01-15T00:15:38.013Z,10.32
2019-01-15T00:16:14.886Z,14.20
2019-01-15T00:16:52.400Z,20.37
2019-01-15T00:17:30.443Z,20.82
2019-01-15T00:18:07.617Z,19.07
2019-01-15T00:18:45.371Z,16.77
2019-01-15T00:19:23.241Z,17.82
2019-01-15T00:20:01.219Z,14.43
2019-01-15T00:20:39.294Z,15.88
2019-01-15T00:21:16.689Z,13.85
2019-01-15T00:21:55.527Z,8.85
2019-01-15T00:22:33.080Z,12.63
2019-01-15T00:23:10.513Z,17.52
2019-01-15T00:23:48.506Z,11.05
2019-01-15T00:24:26.055Z,16.65
2019-01-15T00:25:03.339Z,17.12
2019-01-15T00:25:40.836Z,20.60
2019-01-15T00:26:18.499Z,16.25
2019-01-15T00:26:56.441Z,14.30
2019-01-15T00:27:34.279Z,16.00
2019-01-15T00:28:12.276Z,23.52
2019-01-15T00:28:50.128Z,12.25
2019-01-15T00:29:27.860Z,21.10
2019-01-15T00:30:07.389Z,14.80
2019-01-15T00:30:45.162Z,16.95
2019-01-15T00:31:22.569Z,16.80
2019-01-15T00:32:00.342Z,9.40
2019-01-15T00:32:38.479Z,9.40
2019-01-15T00:33:16.077Z,21.50
2019-01-15T00:33:53.534Z,17.30
2019-01-15T00:34:31.554Z,21.12
2019-01-15T00:35:09.444Z,18.23
2019-01-15T00:35:46.895Z,15.15
2019-01-15T00:36:24.281Z,26.27
2019-01-15T00:37:02.140Z,16.77
2019-01-15T00:37:39.587Z,22.75
2019-01-15T00:38:17.118Z,13.50
2019-01-15T00:38:54.566Z,13.72
2019-01-15T00:39:32.583Z,18.75
2019-01-15T00:40:12.884Z,15.43
2019-01-15T00:40:51.178Z,22.73
2019-01-15T00:41:28.716Z,12.82
2019-01-15T00:42:06.359Z,18.82
2019-01-15T00:42:43.821Z,26.50
2019-01-15T00:43:21.546Z,22.22
2019-01-15T00:43:59.715Z,16.70
2019-01-15T00:44:36.865Z,17.37
2019-01-15T00:45:15.071Z,12.40
2019-01-15T00:45:53.030Z,15.75
2019-01-15T00:46:30.658Z,21.80
2019-01-15T00:47:08.748Z,14.98
2019-01-15T00:47:46.771Z,13.88
2019-01-15T00:48:25.222Z,14.47
2019-01-15T00:49:03.219Z,15.30
2019-01-15T00:49:41.097Z,15.53
2019-01-15T00:50:19.275Z,17.45
2019-01-15T00:50:56.369Z,19.65
2019-01-15T00:51:34.303Z,16.50
2019-01-15T00:52:12.325Z,15.35
2019-01-15T00:52:50.267Z,19.35
2019-01-15T00:53:27.578Z,26.73
2019-01-15T00:54:05.262Z,16.52
2019-01-15T00:54:43.393Z,20.75
2019-01-15T00:55:21.344Z,13.40
2019-01-15T00:55:58.960Z,15.38
2019-01-15T00:56:37.016Z,15.88
2019-01-15T00:57:14.770Z,18.30
2019-01-15T00:57:52.208Z,22.13
2019-01-15T00:58:29.432Z,18.87
2019-01-15T00:59:06.935Z,19.15
2019-01-15T00:59:43.838Z,21.57
2019-01-15T01:00:23.095Z,13.70
2019-01-15T01:01:00.316Z,21.68
2019-01-15T01:01:37.684Z,14.90
2019-01-15T01:02:15.691Z,14.03
2019-01-15T01:02:53.122Z,11.90
2019-01-15T01:03:31.214Z,17.32
2019-01-15T01:04:08.742Z,16.27
2019-01-15T01:04:46.212Z,19.87
2019-01-15T01:05:24.346Z,16.62
2019-01-15T01:06:02.552Z,15.65
2019-01-15T01:06:39.988Z,25.05
2019-01-15T01:07:17.332Z,31.95
2019-01-15T01:07:54.567Z,20.08
2019-01-15T01:08:32.263Z,26.75
2019-01-15T01:09:11.792Z,14.10
2019-01-15T01:09:49.390Z,13.03
2019-01-15T01:10:27.745Z,15.48
2019-01-15T01:11:07.700Z,19.87
2019-01-15T01:11:46.317Z,10.72
2019-01-15T01:12:25.000Z,11.35
2019-01-15T01:13:02.622Z,13.00
2019-01-15T01:13:40.704Z,18.35
2019-01-15T01:14:19.034Z,15.78
2019-01-15T01:14:57.476Z,10.88
2019-01-15T01:15:35.671Z,13.88
2019-01-15T01:16:13.510Z,18.98
2019-01-15T01:16:51.702Z,22.05
2019-01-15T01:17:29.506Z,25.82
2019-01-15T01:18:06.797Z,11.88
2019-01-15T01:18:44.588Z,18.67
2019-01-15T01:19:22.225Z,12.80
2019-01-15T01:19:59.996Z,12.25
2019-01-15T01:20:37.284Z,20.27
2019-01-15T01:21:14.984Z,15.83
2019-01-15T01:21:53.233Z,15.13
2019-01-15T01:22:31.418Z,15.75
2019-01-15T01:23:08.992Z,20.17
2019-01-15T01:23:46.649Z,19.42
2019-01-15T01:24:24.468Z,15.40
2019-01-15T01:25:02.407Z,15.95
2019-01-15T01:25:40.208Z,14.28
2019-01-15T01:26:18.108Z,21.27
2019-01-15T01:26:55.541Z,12.53
2019-01-15T01:27:32.687Z,24.50
2019-01-15T01:28:10.140Z,17.17
2019-01-15T01:28:47.611Z,17.70
2019-01-15T01:29:25.817Z,13.58
2019-01-15T01:30:04.042Z,21.15
2019-01-15T01:30:41.962Z,18.42
2019-01-15T01:31:19.966Z,11.95
2019-01-15T01:31:57.431Z,15.75
2019-01-15T01:32:34.877Z,15.53
2019-01-15T01:33:12.629Z,16.12
2019-01-15T01:33:50.173Z,9.68
2019-01-15T01:34:28.044Z,21.12
2019-01-15T01:35:05.844Z,14.05
2019-01-15T01:35:43.983Z,15.05
2019-01-15T01:36:21.804Z,16.50
2019-01-15T01:36:59.410Z,25.40
2019-01-15T01:37:37.183Z,17.07
2019-01-15T01:38:14.612Z,12.53
2019-01-15T01:38:52.296Z,14.45
2019-01-15T01:39:30.094Z,9.98
2019-01-15T01:40:09.280Z,20.75
2019-01-15T01:40:47.580Z,12.80
2019-01-15T01:41:25.542Z,18.80
2019-01-15T01:42:03.460Z,21.10
2019-01-15T01:42:40.612Z,14.65
2019-01-15T01:43:18.110Z,12.18
2019-01-15T01:43:56.176Z,21.60
2019-01-15T01:44:33.921Z,6.75
2019-01-15T01:45:12.898Z,19.70
2019-01-15T01:45:50.688Z,10.18
2019-01-15T01:46:28.438Z,18.35
2019-01-15T01:47:05.984Z,15.30
2019-01-15T01:47:43.797Z,16.90
2019-01-15T01:48:21.240Z,13.03
2019-01-15T01:48:59.288Z,12.10
2019-01-15T01:49:37.264Z,19.35
2019-01-15T01:50:15.598Z,13.28
2019-01-15T01:50:53.350Z,18.80
2019-01-15T01:51:31.184Z,9.58
2019-01-15T01:52:08.528Z,17.90
2019-01-15T01:52:46.698Z,13.93
2019-01-15T01:53:24.232Z,17.95
2019-01-15T01:54:01.783Z,15.25
2019-01-15T01:54:39.552Z,19.70
2019-01-15T01:55:16.877Z,17.90
2019-01-15T01:55:54.560Z,16.48
2019-01-15T01:56:31.919Z,19.07
2019-01-15T01:57:09.996Z,17.90
2019-01-15T01:57:47.474Z,19.80
2019-01-15T01:58:25.587Z,17.12
2019-01-15T01:59:03.164Z,18.85
2019-01-15T01:59:40.745Z,19.52
2019-01-15T02:00:21.981Z,21.57
2019-01-15T02:00:59.186Z,17.05
2019-01-15T02:01:37.241Z,14.65
2019-01-15T02:02:14.425Z,12.33
2019-01-15T02:02:52.076Z,12.33
2019-01-15T02:03:30.121Z,13.13
2019-01-15T02:04:07.878Z,20.10
2019-01-15T02:04:45.630Z,23.62
2019-01-15T02:05:23.582Z,14.03
2019-01-15T02:06:01.028Z,13.08
2019-01-15T02:06:38.658Z,14.58
2019-01-15T02:07:16.529Z,13.22
2019-01-15T02:07:53.768Z,12.60
2019-01-15T02:08:31.896Z,17.25
2019-01-15T02:09:10.259Z,13.35
2019-01-15T02:09:47.849Z,19.85
2019-01-15T02:10:25.860Z,15.78
2019-01-15T02:11:03.680Z,12.00
2019-01-15T02:11:41.648Z,13.00
2019-01-15T02:12:19.252Z,13.88
2019-01-15T02:12:56.160Z,18.12
2019-01-15T02:13:33.820Z,11.88
2019-01-15T02:14:10.782Z,19.02
2019-01-15T02:14:48.424Z,20.25
2019-01-15T02:15:27.030Z,15.80
2019-01-15T02:16:04.884Z,18.42
2019-01-15T02:16:42.886Z,17.92
2019-01-15T02:17:20.676Z,11.68
2019-01-15T02:17:58.602Z,20.08
2019-01-15T02:18:35.800Z,11.90
2019-01-15T02:19:13.376Z,13.90
2019-01-15T02:19:51.266Z,14.80
2019-01-15T02:20:28.548Z,13.22
2019-01-15T02:21:06.856Z,12.98
2019-01-15T02:21:44.542Z,17.10
2019-01-15T02:22:22.768Z,19.95
2019-01-15T02:23:00.293Z,14.15
2019-01-15T02:23:37.649Z,15.40
2019-01-15T02:24:15.360Z,14.85
2019-01-15T02:24:52.664Z,24.50
2019-01-15T02:25:30.108Z,12.53
2019-01-15T02:26:08.329Z,10.15
2019-01-15T02:26:46.210Z,15.30
2019-01-15T02:27:24.729Z,11.70
2019-01-15T02:28:02.380Z,23.38
2019-01-15T02:28:40.404Z,24.85
2019-01-15T02:29:18.079Z,21.75
2019-01-15T02:29:55.756Z,21.80
2019-01-15T02:30:33.852Z,17.50
2019-01-15T02:31:11.621Z,12.90
2019-01-15T02:31:49.276Z,11.25
2019-01-15T02:32:27.014Z,18.27
2019-01-15T02:33:05.318Z,10.88
2019-01-15T02:33:43.170Z,14.40
2019-01-15T02:34:20.878Z,17.82
2019-01-15T02:34:58.565Z,12.03
2019-01-15T02:35:36.490Z,18.77
2019-01-15T02:36:13.800Z,21.48
2019-01-15T02:36:51.581Z,9.70
2019-01-15T02:37:28.726Z,11.43
2019-01-15T02:38:06.413Z,18.60
2019-01-15T02:38:43.866Z,19.10
2019-01-15T02:39:21.575Z,18.57
2019-01-15T02:39:59.472Z,10.58
2019-01-15T02:40:37.092Z,10.95
2019-01-15T02:41:15.031Z,20.40
2019-01-15T02:41:52.874Z,9.28
2019-01-15T02:42:30.793Z,12.20
2019-01-15T02:43:07.945Z,16.40
2019-01-15T02:43:45.612Z,9.78
2019-01-15T02:44:23.358Z,12.80
2019-01-15T02:45:01.361Z,15.50
2019-01-15T02:45:39.413Z,15.55
2019-01-15T02:46:17.411Z,18.48
2019-01-15T02:46:55.216Z,12.15
2019-01-15T02:47:32.666Z,13.70
2019-01-15T02:48:10.472Z,11.08
2019-01-15T02:48:48.644Z,9.85
2019-01-15T02:49:26.067Z,8.03
2019-01-15T02:50:03.196Z,6.80
2019-01-15T02:50:40.645Z,12.78
2019-01-15T02:51:18.255Z,16.10
2019-01-15T02:51:56.072Z,12.95
2019-01-15T02:52:33.188Z,13.08
2019-01-15T02:53:11.058Z,10.23
2019-01-15T02:53:48.599Z,10.65
2019-01-15T02:54:26.273Z,21.77
2019-01-15T02:55:04.564Z,9.63
2019-01-15T02:55:42.322Z,10.28
2019-01-15T02:56:20.414Z,9.85
2019-01-15T02:56:58.245Z,7.78
2019-01-15T02:57:35.521Z,8.53
2019-01-15T02:58:13.065Z,9.33
2019-01-15T02:58:50.528Z,11.28
2019-01-15T02:59:28.852Z,8.08
2019-01-15T03:00:11.169Z,12.13
2019-01-15T03:00:48.236Z,10.65
2019-01-15T03:01:25.737Z,9.95
2019-01-15T03:02:03.620Z,14.93
2019-01-15T03:02:40.823Z,15.83
2019-01-15T03:03:18.914Z,11.18
2019-01-15T03:03:56.976Z,8.78
2019-01-15T03:04:34.664Z,10.88
2019-01-15T03:05:12.654Z,14.68
2019-01-15T03:05:50.400Z,9.05
2019-01-15T03:06:27.914Z,13.60
2019-01-15T03:07:05.815Z,10.08
2019-01-15T03:07:43.369Z,18.70
2019-01-15T03:08:21.382Z,9.33
2019-01-15T03:08:59.089Z,7.35
2019-01-15T03:09:36.747Z,4.62
2019-01-15T03:10:16.022Z,7.92
2019-01-15T03:10:53.748Z,8.43
2019-01-15T03:11:31.832Z,15.85
2019-01-15T03:12:08.664Z,15.50
2019-01-15T03:12:55.111Z,12.40
2019-01-15T03:13:28.268Z,9.60
2019-01-15T03:14:06.225Z,12.30
2019-01-15T03:14:44.204Z,13.75
2019-01-15T03:15:22.404Z,6.20
2019-01-15T03:16:00.388Z,7.37
2019-01-15T03:16:38.288Z,7.35
2019-01-15T03:17:15.910Z,11.12
2019-01-15T03:17:54.680Z,17.30
2019-01-15T03:18:32.383Z,8.33
2019-01-15T03:19:10.017Z,9.08
2019-01-15T03:19:47.212Z,12.85
2019-01-15T03:20:24.746Z,10.03
2019-01-15T03:21:02.115Z,10.82
2019-01-15T03:21:40.128Z,11.83
2019-01-15T03:22:18.057Z,12.50
2019-01-15T03:22:55.914Z,13.72
2019-01-15T03:23:33.559Z,9.08
2019-01-15T03:24:11.476Z,10.45
2019-01-15T03:24:48.784Z,5.95
2019-01-15T03:25:26.444Z,11.35
2019-01-15T03:26:04.179Z,11.97
2019-01-15T03:26:41.858Z,9.48
2019-01-15T03:27:20.310Z,12.50
2019-01-15T03:27:57.885Z,9.10
2019-01-15T03:28:35.770Z,11.28
2019-01-15T03:29:13.696Z,7.85
2019-01-15T03:29:51.580Z,14.30
2019-01-15T03:30:29.422Z,19.12
2019-01-15T03:31:07.130Z,15.10
2019-01-15T03:31:44.373Z,13.38
2019-01-15T03:32:21.949Z,11.18
2019-01-15T03:32:59.318Z,9.20
2019-01-15T03:33:37.377Z,10.58
2019-01-15T03:34:15.205Z,7.72
2019-01-15T03:34:52.330Z,8.05
2019-01-15T03:35:30.096Z,8.80
2019-01-15T03:36:08.023Z,14.33
2019-01-15T03:36:44.748Z,17.25
2019-01-15T03:37:22.141Z,13.48
2019-01-15T03:37:59.852Z,13.80
2019-01-15T03:38:37.176Z,10.03
2019-01-15T03:39:14.523Z,6.92
2019-01-15T03:39:52.363Z,6.97
2019-01-15T03:40:30.297Z,9.80
2019-01-15T03:41:07.423Z,11.30
2019-01-15T03:41:45.292Z,6.85
2019-01-15T03:42:23.284Z,8.40
2019-01-15T03:43:03.799Z,5.10
2019-01-15T03:43:40.790Z,8.73
2019-01-15T03:44:18.680Z,6.55
2019-01-15T03:44:56.299Z,5.10
2019-01-15T03:45:33.952Z,6.35
2019-01-15T03:46:11.840Z,8.63
2019-01-15T03:46:49.516Z,4.55
2019-01-15T03:47:27.485Z,10.88
2019-01-15T03:48:04.982Z,9.60
2019-01-15T03:48:42.579Z,11.18
2019-01-15T03:49:20.617Z,14.18
2019-01-15T03:49:58.077Z,4.67
2019-01-15T03:50:35.456Z,9.95
2019-01-15T03:51:12.488Z,4.62
2019-01-15T03:51:50.398Z,6.40
2019-01-15T03:52:28.447Z,8.20
2019-01-15T03:53:06.331Z,2.60
2019-01-15T03:53:44.161Z,4.95
2019-01-15T03:54:21.521Z,5.83
2019-01-15T03:54:58.994Z,3.22
2019-01-15T03:55:36.630Z,5.50
2019-01-15T03:56:14.304Z,3.58
2019-01-15T03:56:51.708Z,3.47
2019-01-15T03:57:29.236Z,5.00
2019-01-15T03:58:06.956Z,6.47
2019-01-15T03:58:44.348Z,2.90
2019-01-15T03:59:22.000Z,2.58
2019-01-15T04:00:00.693Z,8.78
2019-01-15T04:00:38.004Z,5.72
2019-01-15T04:01:15.930Z,5.53
2019-01-15T04:01:53.924Z,5.17
2019-01-15T04:02:31.871Z,4.22
2019-01-15T04:03:09.401Z,5.28
2019-01-15T04:03:46.555Z,3.83
2019-01-15T04:04:23.880Z,5.70
2019-01-15T04:05:02.246Z,6.08
2019-01-15T04:05:40.026Z,6.15
2019-01-15T04:06:17.355Z,3.83
2019-01-15T04:06:55.298Z,2.47
2019-01-15T04:07:33.344Z,3.50
2019-01-15T04:08:11.236Z,4.50
2019-01-15T04:08:48.496Z,6.25
2019-01-15T04:09:26.431Z,3.12
2019-01-15T04:10:04.344Z,3.42
2019-01-15T04:10:42.217Z,3.45
2019-01-15T04:11:19.622Z,4.90
2019-01-15T04:11:57.029Z,2.27
2019-01-15T04:12:34.713Z,4.35
2019-01-15T04:13:11.791Z,4.92
2019-01-15T04:13:49.682Z,8.45
2019-01-15T04:14:27.351Z,3.47
2019-01-15T04:15:05.690Z,7.05
2019-01-15T04:15:43.092Z,3.05
2019-01-15T04:16:21.025Z,6.97
2019-01-15T04:16:58.712Z,6.17
2019-01-15T04:17:36.425Z,6.45
2019-01-15T04:18:14.026Z,6.85
2019-01-15T04:18:53.157Z,5.05
2019-01-15T04:19:30.797Z,2.22
2019-01-15T04:20:12.655Z,3.00
2019-01-15T04:20:50.559Z,5.37
2019-01-15T04:21:28.563Z,2.30
2019-01-15T04:22:06.370Z,2.95
2019-01-15T04:22:43.864Z,3.00
2019-01-15T04:23:21.275Z,2.58
2019-01-15T04:23:59.188Z,1.85
2019-01-15T04:24:36.601Z,6.62
2019-01-15T04:25:14.770Z,3.72
2019-01-15T04:25:52.140Z,1.90
2019-01-15T04:26:29.931Z,3.15
2019-01-15T04:27:07.317Z,1.20
2019-01-15T04:27:44.836Z,2.35
2019-01-15T04:28:22.746Z,3.10
2019-01-15T04:29:00.498Z,7.35
2019-01-15T04:29:38.117Z,3.62
2019-01-15T04:30:17.941Z,3.40
2019-01-15T04:30:55.981Z,2.35
2019-01-15T04:31:33.708Z,3.65
2019-01-15T04:32:11.441Z,3.17
2019-01-15T04:32:49.050Z,5.75
2019-01-15T04:33:27.313Z,6.62
2019-01-15T04:34:04.703Z,3.67
2019-01-15T04:34:43.059Z,2.72
2019-01-15T04:35:21.398Z,3.92
2019-01-15T04:35:59.207Z,3.70
2019-01-15T04:36:37.135Z,3.70
2019-01-15T04:37:15.181Z,1.40
2019-01-15T04:37:52.602Z,1.52
2019-01-15T04:38:30.497Z,3.55
2019-01-15T04:39:09.739Z,3.62
2019-01-15T04:39:47.564Z,3.10
2019-01-15T04:40:25.537Z,5.10
2019-01-15T04:41:02.953Z,1.47
2019-01-15T04:41:40.588Z,1.55
2019-01-15T04:42:18.289Z,3.75
2019-01-15T04:42:55.924Z,2.95
2019-01-15T04:43:33.535Z,2.02
2019-01-15T04:44:11.481Z,6.90
2019-01-15T04:44:49.312Z,3.08
2019-01-15T04:45:27.460Z,4.67
2019-01-15T04:46:05.740Z,3.05
2019-01-15T04:46:43.941Z,2.58
2019-01-15T04:47:22.482Z,7.87
2019-01-15T04:47:59.931Z,1.32
2019-01-15T04:48:37.626Z,3.87
2019-01-15T04:49:15.455Z,2.98
2019-01-15T04:49:52.589Z,2.20
2019-01-15T04:50:29.951Z,1.22
2019-01-15T04:51:07.090Z,1.57
2019-01-15T04:51:44.761Z,3.05
2019-01-15T04:52:22.333Z,1.67
2019-01-15T04:53:02.389Z,1.82
2019-01-15T04:53:39.748Z,4.87
2019-01-15T04:54:17.400Z,2.65
2019-01-15T04:54:55.041Z,2.95
2019-01-15T04:55:34.568Z,3.72
2019-01-15T04:56:12.223Z,2.55
2019-01-15T04:56:50.374Z,2.52
2019-01-15T04:57:28.295Z,2.95
2019-01-15T04:58:06.296Z,1.98
2019-01-15T04:58:46.321Z,2.10
2019-01-15T04:59:23.765Z,4.60
2019-01-15T05:00:01.870Z,1.77
2019-01-15T05:00:39.247Z,3.83
2019-01-15T05:01:16.521Z,3.67
2019-01-15T05:01:53.851Z,2.45
2019-01-15T05:02:31.538Z,1.35
2019-01-15T05:03:11.369Z,6.60
2019-01-15T05:03:49.790Z,1.80
2019-01-15T05:04:27.099Z,1.62
2019-01-15T05:05:05.221Z,1.52
2019-01-15T05:05:42.511Z,1.15
2019-01-15T05:06:20.019Z,2.92
2019-01-15T05:06:57.611Z,2.75
2019-01-15T05:07:34.844Z,4.20
2019-01-15T05:08:11.986Z,2.17
2019-01-15T05:08:49.317Z,1.40
2019-01-15T05:09:26.991Z,3.27
2019-01-15T05:10:05.074Z,3.22
2019-01-15T05:10:43.102Z,1.55
2019-01-15T05:11:20.780Z,1.90
2019-01-15T05:11:58.302Z,1.42
2019-01-15T05:12:36.137Z,1.32
2019-01-15T05:13:13.493Z,0.90
2019-01-15T05:13:50.853Z,1.30
2019-01-15T05:14:28.488Z,2.15
2019-01-15T05:15:07.918Z,1.92
2019-01-15T05:15:45.277Z,1.98
2019-01-15T05:16:23.198Z,2.12
2019-01-15T05:17:00.512Z,2.15
2019-01-15T05:17:37.933Z,1.90
2019-01-15T05:18:15.381Z,2.55
2019-01-15T05:18:52.707Z,3.85
2019-01-15T05:19:30.522Z,1.72
2019-01-15T05:20:09.843Z,2.27
2019-01-15T05:20:47.477Z,1.75
2019-01-15T05:21:25.531Z,1.30
2019-01-15T05:22:03.200Z,2.65
2019-01-15T05:22:41.275Z,1.20
2019-01-15T05:23:18.949Z,2.85
2019-01-15T05:23:56.554Z,2.87
2019-01-15T05:24:34.443Z,3.55
2019-01-15T05:25:14.599Z,1.80
2019-01-15T05:25:52.542Z,5.25
2019-01-15T05:26:30.659Z,1.92
2019-01-15T05:27:08.506Z,2.30
2019-01-15T05:27:46.241Z,4.45
2019-01-15T05:28:23.673Z,2.30
2019-01-15T05:29:01.279Z,4.08
2019-01-15T05:29:38.701Z,2.98
2019-01-15T05:30:21.008Z,3.45
2019-01-15T05:30:59.069Z,2.50
2019-01-15T05:31:37.310Z,4.00
2019-01-15T05:32:15.281Z,4.45
2019-01-15T05:32:53.152Z,2.33
2019-01-15T05:33:30.715Z,1.50
2019-01-15T05:34:08.466Z,2.95
2019-01-15T05:34:46.369Z,1.70
2019-01-15T05:35:23.532Z,3.37
2019-01-15T05:36:00.573Z,1.98
2019-01-15T05:36:38.281Z,5.17
2019-01-15T05:37:16.505Z,4.20
2019-01-15T05:37:54.282Z,1.27
2019-01-15T05:38:31.981Z,3.47
2019-01-15T05:39:10.509Z,4.58
2019-01-15T05:39:47.751Z,4.15
2019-01-15T05:40:25.970Z,4.15
2019-01-15T05:41:03.501Z,7.60
2019-01-15T05:41:40.829Z,3.45
2019-01-15T05:42:17.635Z,9.03
2019-01-15T05:42:55.774Z,4.90
2019-01-15T05:43:35.788Z,3.55
2019-01-15T05:44:12.778Z,4.15
2019-01-15T05:44:50.503Z,3.35
2019-01-15T05:45:36.557Z,5.60
2019-01-15T05:46:14.760Z,5.62
2019-01-15T05:46:52.459Z,2.87
2019-01-15T05:47:30.389Z,9.48
2019-01-15T05:48:10.954Z,7.20
2019-01-15T05:48:48.786Z,6.50
2019-01-15T05:49:26.485Z,13.10
2019-01-15T05:50:04.213Z,8.50
2019-01-15T05:50:49.805Z,6.70
2019-01-15T05:51:31.066Z,3.52
2019-01-15T05:52:08.926Z,6.85
2019-01-15T05:52:46.457Z,7.87
2019-01-15T05:53:23.522Z,5.30
2019-01-15T05:54:01.314Z,5.85
2019-01-15T05:54:38.588Z,8.15
2019-01-15T05:55:16.385Z,7.85
2019-01-15T05:55:54.385Z,7.08
2019-01-15T05:56:31.772Z,10.05
2019-01-15T05:57:09.623Z,6.28
2019-01-15T05:57:47.474Z,8.95
2019-01-15T05:58:25.107Z,4.40
2019-01-15T05:59:02.185Z,9.00
2019-01-15T05:59:39.473Z,6.50
2019-01-15T06:00:17.036Z,13.15
2019-01-15T06:00:54.509Z,11.18
2019-01-15T06:01:32.141Z,12.60
2019-01-15T06:02:09.622Z,8.15
2019-01-15T06:02:47.135Z,6.33
2019-01-15T06:03:25.229Z,8.50
2019-01-15T06:04:02.702Z,11.65
2019-01-15T06:04:40.756Z,7.10
2019-01-15T06:05:18.382Z,11.35
2019-01-15T06:05:55.861Z,6.37
2019-01-15T06:06:33.835Z,15.43
2019-01-15T06:07:11.618Z,15.28
2019-01-15T06:07:48.880Z,5.25
2019-01-15T06:08:26.283Z,8.75
2019-01-15T06:09:05.643Z,10.48
2019-01-15T06:09:43.181Z,11.70
2019-01-15T06:10:21.299Z,8.30
2019-01-15T06:10:58.823Z,8.88
2019-01-15T06:11:36.540Z,7.45
2019-01-15T06:12:14.571Z,10.05
2019-01-15T06:12:52.113Z,11.95
2019-01-15T06:13:30.110Z,8.50
2019-01-15T06:14:07.891Z,10.60
2019-01-15T06:14:45.709Z,14.00
2019-01-15T06:15:23.481Z,16.67
2019-01-15T06:16:00.989Z,9.83
2019-01-15T06:16:38.437Z,8.58
2019-01-15T06:17:16.316Z,14.40
2019-01-15T06:17:54.506Z,11.18
2019-01-15T06:18:32.155Z,10.32
2019-01-15T06:19:09.755Z,12.03
2019-01-15T06:19:46.902Z,7.62
2019-01-15T06:20:24.710Z,9.03
2019-01-15T06:21:02.217Z,9.33
2019-01-15T06:21:39.846Z,8.60
2019-01-15T06:22:17.253Z,11.57
2019-01-15T06:22:54.951Z,11.90
2019-01-15T06:23:32.623Z,13.55
2019-01-15T06:24:10.472Z,13.60
2019-01-15T06:24:47.903Z,14.53
2019-01-15T06:25:25.997Z,7.80
2019-01-15T06:26:03.879Z,7.83
2019-01-15T06:26:40.997Z,6.12
2019-01-15T06:27:18.357Z,8.98
2019-01-15T06:27:55.805Z,10.53
2019-01-15T06:28:32.749Z,12.07
2019-01-15T06:29:10.809Z,10.10
2019-01-15T06:29:48.595Z,13.43
2019-01-15T06:30:26.369Z,14.70
2019-01-15T06:31:03.855Z,7.03
2019-01-15T06:31:41.785Z,11.15
2019-01-15T06:32:19.314Z,10.98
2019-01-15T06:32:56.762Z,11.78
2019-01-15T06:33:34.433Z,9.80
2019-01-15T06:34:12.405Z,9.60
2019-01-15T06:34:50.020Z,10.05
2019-01-15T06:35:28.057Z,8.08
2019-01-15T06:36:05.933Z,15.05
2019-01-15T06:36:43.994Z,14.93
2019-01-15T06:37:21.866Z,12.00
2019-01-15T06:37:59.310Z,15.78
2019-01-15T06:38:36.521Z,15.85
2019-01-15T06:39:13.788Z,14.75
2019-01-15T06:39:51.587Z,10.88
2019-01-15T06:40:29.402Z,10.10
2019-01-15T06:41:07.235Z,9.30
2019-01-15T06:41:45.337Z,17.98
2019-01-15T06:42:22.788Z,10.78
2019-01-15T06:43:00.565Z,14.45
2019-01-15T06:43:38.850Z,11.80
2019-01-15T06:44:16.340Z,15.93
2019-01-15T06:44:54.063Z,14.18
2019-01-15T06:45:31.860Z,14.47
2019-01-15T06:46:10.085Z,14.18
2019-01-15T06:46:47.629Z,15.95
2019-01-15T06:47:25.310Z,14.03
2019-01-15T06:48:03.402Z,14.87
2019-01-15T06:48:41.011Z,10.82
2019-01-15T06:49:18.870Z,15.90
2019-01-15T06:49:56.315Z,8.33
2019-01-15T06:50:34.076Z,10.28
2019-01-15T06:51:11.679Z,13.45
2019-01-15T06:51:49.177Z,14.20
2019-01-15T06:52:26.494Z,8.75
2019-01-15T06:53:04.374Z,11.73
2019-01-15T06:53:41.592Z,12.95
2019-01-15T06:54:19.066Z,9.03
2019-01-15T06:54:56.400Z,9.40
2019-01-15T06:55:34.227Z,13.45
2019-01-15T06:56:11.870Z,16.57
2019-01-15T06:56:49.576Z,13.32
2019-01-15T06:57:27.216Z,12.98
2019-01-15T06:58:05.052Z,11.03
2019-01-15T06:58:42.811Z,16.87
2019-01-15T06:59:20.396Z,12.33
2019-01-15T06:59:58.380Z,9.75
2019-01-15T07:00:36.070Z,12.70
2019-01-15T07:01:14.022Z,14.87
2019-01-15T07:01:51.507Z,11.50
2019-01-15T07:02:29.526Z,9.18
2019-01-15T07:03:07.317Z,17.98
2019-01-15T07:03:44.609Z,12.40
2019-01-15T07:04:22.671Z,11.65
2019-01-15T07:05:00.237Z,22.40
2019-01-15T07:05:37.634Z,18.48
2019-01-15T07:06:15.359Z,18.45
2019-01-15T07:06:52.793Z,12.43
2019-01-15T07:07:29.887Z,13.55
2019-01-15T07:08:07.847Z,14.20
2019-01-15T07:08:45.376Z,21.40
2019-01-15T07:09:23.062Z,21.15
2019-01-15T07:10:03.001Z,19.87
2019-01-15T07:10:40.989Z,16.10
2019-01-15T07:11:18.159Z,13.60
2019-01-15T07:11:55.876Z,16.48
2019-01-15T07:12:33.588Z,20.20
2019-01-15T07:13:10.809Z,11.75
2019-01-15T07:13:48.225Z,14.07
2019-01-15T07:14:26.205Z,11.55
2019-01-15T07:15:04.239Z,11.95
2019-01-15T07:15:42.201Z,21.02
2019-01-15T07:16:19.577Z,17.65
2019-01-15T07:16:57.214Z,16.62
2019-01-15T07:17:35.281Z,12.15
2019-01-15T07:18:13.398Z,18.73
2019-01-15T07:18:50.667Z,13.95
2019-01-15T07:19:28.372Z,9.15
2019-01-15T07:20:07.526Z,15.63
2019-01-15T07:20:45.317Z,17.25
2019-01-15T07:21:22.631Z,22.58
2019-01-15T07:22:00.461Z,17.50
2019-01-15T07:22:37.883Z,22.93
2019-01-15T07:23:15.454Z,17.07
2019-01-15T07:23:53.975Z,13.70
2019-01-15T07:24:31.764Z,15.48
2019-01-15T07:25:11.532Z,11.40
2019-01-15T07:25:49.065Z,11.15
2019-01-15T07:26:27.047Z,22.48
2019-01-15T07:27:04.428Z,21.25
2019-01-15T07:27:41.961Z,12.00
2019-01-15T07:28:19.458Z,7.17
2019-01-15T07:28:57.079Z,15.13
2019-01-15T07:29:34.212Z,18.75
2019-01-15T07:30:14.886Z,14.68
2019-01-15T07:30:54.692Z,16.42
2019-01-15T07:31:32.080Z,20.15
2019-01-15T07:32:10.098Z,111.70
2019-01-15T07:32:48.239Z,62.00
2019-01-15T07:33:29.740Z,13.93
2019-01-15T07:34:07.336Z,11.43
2019-01-15T07:34:44.920Z,16.82
2019-01-15T07:35:22.572Z,14.47
2019-01-15T07:35:59.900Z,13.78
2019-01-15T07:36:37.563Z,8.50
2019-01-15T07:37:15.244Z,11.22
2019-01-15T07:37:53.126Z,18.82
2019-01-15T07:38:31.352Z,14.00
2019-01-15T07:39:10.142Z,18.80
2019-01-15T07:39:47.822Z,15.58
2019-01-15T07:40:25.111Z,13.83
2019-01-15T07:41:02.599Z,17.30
2019-01-15T07:41:39.976Z,21.00
2019-01-15T07:42:17.694Z,17.82
2019-01-15T07:42:55.088Z,12.90
2019-01-15T07:43:32.406Z,13.43
2019-01-15T07:44:09.630Z,18.75
2019-01-15T07:44:47.232Z,18.57
2019-01-15T07:45:25.084Z,17.73
2019-01-15T07:46:02.832Z,15.53
2019-01-15T07:46:40.567Z,16.82
2019-01-15T07:47:18.356Z,12.07
2019-01-15T07:47:55.472Z,14.83
2019-01-15T07:48:33.344Z,13.55
2019-01-15T07:49:11.270Z,15.18
2019-01-15T07:49:48.915Z,9.90
2019-01-15T07:50:26.958Z,16.17
2019-01-15T07:51:06.078Z,15.65
2019-01-15T07:51:43.980Z,21.62
2019-01-15T07:52:21.676Z,16.62
2019-01-15T07:52:59.516Z,14.10
2019-01-15T07:53:37.327Z,16.73
2019-01-15T07:54:15.057Z,13.03
2019-01-15T07:54:52.975Z,17.73
2019-01-15T07:55:31.008Z,16.37
2019-01-15T07:56:08.606Z,16.75
2019-01-15T07:56:46.776Z,11.68
2019-01-15T07:57:24.176Z,18.50
2019-01-15T07:58:02.142Z,24.45
2019-01-15T07:58:39.850Z,9.75
2019-01-15T07:59:17.843Z,25.68
2019-01-15T07:59:55.860Z,19.27
2019-01-15T08:00:33.664Z,10.45
2019-01-15T08:01:11.728Z,12.15
2019-01-15T08:01:49.946Z,17.90
2019-01-15T08:02:29.720Z,22.05
2019-01-15T08:03:07.662Z,20.23
2019-01-15T08:03:45.740Z,17.90
2019-01-15T08:04:23.127Z,13.93
2019-01-15T08:05:03.364Z,14.28
2019-01-15T08:05:41.661Z,20.72
2019-01-15T08:06:19.453Z,13.90
2019-01-15T08:06:57.442Z,13.93
2019-01-15T08:07:36.039Z,26.37
2019-01-15T08:08:14.244Z,23.05
2019-01-15T08:08:52.543Z,10.23
2019-01-15T08:09:29.786Z,21.60
2019-01-15T08:10:09.574Z,19.87
2019-01-15T08:10:47.120Z,12.78
2019-01-15T08:11:25.262Z,10.55
2019-01-15T08:12:02.771Z,17.50
2019-01-15T08:12:40.288Z,18.50
2019-01-15T08:13:18.032Z,23.00
2019-01-15T08:13:56.082Z,15.98